createdAt,value
2019-03-31T00:01:46.839Z,8.60
2019-03-31T00:04:16.850Z,8.70
2019-03-31T00:06:46.868Z,8.60
2019-03-31T00:09:16.835Z,8.50
2019-03-31T00:11:46.839Z,8.50
2019-03-31T00:14:16.823Z,8.40
2019-03-31T00:16:46.789Z,8.40
2019-03-31T00:19:16.747Z,8.30
2019-03-31T00:21:46.732Z,8.30
2019-03-31T00:24:16.703Z,8.20
2019-03-31T00:26:46.716Z,8.20
2019-03-31T00:29:16.688Z,8.20
2019-03-31T00:31:46.683Z,8.40
2019-03-31T00:34:16.898Z,8.50
2019-03-31T00:36:47.007Z,8.60
2019-03-31T00:39:16.987Z,8.60
2019-03-31T00:41:46.987Z,8.60
2019-03-31T00:44:16.899Z,8.60
2019-03-31T00:46:46.893Z,8.50
2019-03-31T00:49:17.130Z,8.50
2019-03-31T00:51:47.107Z,8.50
2019-03-31T00:54:17.571Z,8.50
2019-03-31T00:56:48.215Z,8.50
2019-03-31T00:59:19.971Z,8.40
2019-03-31T01:01:55.791Z,8.30
2019-03-31T01:04:28.998Z,8.20
2019-03-31T01:06:59.278Z,8.20
2019-03-31T01:09:32.444Z,8.00
2019-03-31T01:12:04.093Z,7.90
2019-03-31T01:14:34.187Z,7.80
2019-03-31T01:17:06.852Z,7.70
2019-03-31T01:19:36.855Z,7.60
2019-03-31T01:22:06.928Z,7.60
2019-03-31T01:24:36.924Z,7.40
2019-03-31T01:27:09.525Z,7.40
2019-03-31T01:29:40.643Z,7.30
2019-03-31T01:32:11.486Z,7.30
2019-03-31T01:34:42.775Z,7.50
2019-03-31T01:37:13.833Z,7.60
2019-03-31T01:39:46.312Z,7.60
2019-03-31T01:42:17.939Z,7.70
2019-03-31T01:44:47.935Z,7.80
2019-03-31T01:47:18.097Z,7.80
2019-03-31T01:49:48.408Z,7.90
2019-03-31T01:52:18.402Z,7.80
2019-03-31T01:54:48.388Z,7.90
2019-03-31T01:57:19.399Z,7.80
2019-03-31T01:59:49.498Z,8.00
2019-03-31T02:02:26.914Z,8.00
2019-03-31T02:04:56.938Z,8.00
2019-03-31T02:07:26.896Z,7.90
2019-03-31T02:09:57.163Z,7.80
2019-03-31T02:12:27.161Z,7.80
2019-03-31T02:14:57.132Z,7.90
2019-03-31T02:17:27.077Z,7.90
2019-03-31T02:19:57.055Z,7.90
2019-03-31T02:22:27.020Z,7.90
2019-03-31T02:24:57.003Z,7.90
2019-03-31T02:27:26.959Z,7.90
2019-03-31T02:29:56.940Z,7.90
2019-03-31T02:32:26.891Z,7.80
2019-03-31T02:34:56.858Z,7.80
2019-03-31T02:37:26.850Z,7.70
2019-03-31T02:39:57.374Z,7.70
2019-03-31T02:42:27.575Z,7.60
2019-03-31T02:44:57.515Z,7.60
2019-03-31T02:47:27.570Z,7.60
2019-03-31T02:49:57.476Z,7.60
2019-03-31T02:52:27.455Z,7.50
2019-03-31T02:54:57.494Z,7.40
2019-03-31T02:57:28.683Z,7.40
2019-03-31T03:00:00.048Z,7.30
2019-03-31T03:02:41.618Z,7.30
2019-03-31T03:05:18.881Z,7.20
2019-03-31T03:07:39.823Z,7.10
2019-03-31T03:10:09.829Z,7.10
2019-03-31T03:12:42.191Z,7.00
2019-03-31T03:15:13.884Z,7.00
2019-03-31T03:17:43.890Z,7.00
2019-03-31T03:20:14.069Z,7.10
2019-03-31T03:22:44.042Z,7.10
2019-03-31T03:25:14.326Z,7.00
2019-03-31T03:27:44.296Z,7.00
2019-03-31T03:30:14.261Z,7.00
2019-03-31T03:33:12.171Z,7.00
2019-03-31T03:35:15.970Z,6.90
2019-03-31T03:37:45.926Z,7.00
2019-03-31T03:40:16.158Z,6.90
2019-03-31T03:42:46.163Z,6.90
2019-03-31T03:45:16.146Z,7.00
2019-03-31T03:47:46.144Z,7.00
2019-03-31T03:50:16.123Z,6.90
2019-03-31T03:52:46.078Z,6.90
2019-03-31T03:55:16.069Z,6.90
2019-03-31T03:57:46.386Z,6.90
2019-03-31T04:00:16.485Z,7.00
2019-03-31T04:02:46.476Z,6.90
2019-03-31T04:05:16.510Z,6.90
2019-03-31T04:07:46.487Z,6.80
2019-03-31T04:11:04.946Z,6.70
2019-03-31T04:13:35.044Z,6.70
2019-03-31T04:16:05.043Z,6.70
2019-03-31T04:18:35.019Z,6.70
2019-03-31T04:21:05.022Z,6.60
2019-03-31T04:23:34.972Z,6.60
2019-03-31T04:26:04.987Z,6.60
2019-03-31T04:28:34.942Z,6.50
2019-03-31T04:31:04.976Z,6.40
2019-03-31T04:33:49.485Z,6.40
2019-03-31T04:36:06.815Z,6.40
2019-03-31T04:38:37.070Z,6.50
2019-03-31T04:41:07.080Z,6.50
2019-03-31T04:43:37.071Z,6.40
2019-03-31T04:46:07.044Z,6.40
2019-03-31T04:48:37.039Z,6.30
2019-03-31T04:51:07.033Z,6.30
2019-03-31T04:53:36.995Z,6.30
2019-03-31T04:56:06.970Z,6.20
2019-03-31T04:58:36.911Z,6.20
2019-03-31T05:01:06.890Z,6.10
2019-03-31T05:03:36.900Z,6.20
2019-03-31T05:06:07.137Z,6.10
2019-03-31T05:08:37.088Z,6.20
2019-03-31T05:11:07.076Z,6.20
2019-03-31T05:13:37.036Z,6.20
2019-03-31T05:16:07.009Z,6.30
2019-03-31T05:18:36.969Z,6.30
2019-03-31T05:21:06.943Z,6.30
2019-03-31T05:23:37.150Z,6.30
2019-03-31T05:26:07.497Z,6.40
2019-03-31T05:28:37.709Z,6.50
2019-03-31T05:31:07.707Z,6.60
2019-03-31T05:33:37.666Z,6.70
2019-03-31T05:36:07.638Z,6.70
2019-03-31T05:38:37.601Z,6.70
2019-03-31T05:41:07.599Z,6.80
2019-03-31T05:43:37.675Z,6.70
2019-03-31T05:46:07.636Z,6.70
2019-03-31T05:48:37.619Z,6.70
2019-03-31T05:51:07.571Z,6.80
2019-03-31T05:53:37.555Z,6.90
2019-03-31T05:56:07.875Z,7.00
2019-03-31T05:58:37.861Z,7.10
2019-03-31T06:01:07.930Z,7.20
2019-03-31T06:03:37.955Z,7.30
2019-03-31T06:06:07.919Z,7.40
2019-03-31T06:08:37.868Z,7.40
2019-03-31T06:11:08.143Z,7.40
2019-03-31T06:13:38.227Z,7.50
2019-03-31T06:16:08.215Z,7.50
2019-03-31T06:18:38.179Z,7.50
2019-03-31T06:21:08.292Z,7.50
2019-03-31T06:23:38.611Z,7.60
2019-03-31T06:26:08.570Z,7.80
2019-03-31T06:28:38.552Z,7.90
2019-03-31T06:31:08.498Z,8.00
2019-03-31T06:33:38.742Z,8.10
2019-03-31T06:36:08.702Z,8.10
2019-03-31T06:38:38.682Z,8.20
2019-03-31T06:41:08.930Z,8.30
2019-03-31T06:43:38.909Z,8.30
2019-03-31T06:46:08.902Z,8.40
2019-03-31T06:48:38.879Z,8.50
2019-03-31T06:51:08.836Z,8.60
2019-03-31T06:53:38.806Z,8.60
2019-03-31T06:56:08.775Z,8.80
2019-03-31T06:58:39.138Z,8.80
2019-03-31T07:01:09.228Z,8.90
2019-03-31T07:03:39.204Z,9.00
2019-03-31T07:06:09.262Z,9.10
2019-03-31T07:08:39.246Z,9.30
2019-03-31T07:11:09.221Z,9.30
2019-03-31T07:13:39.209Z,9.40
2019-03-31T07:16:09.158Z,9.40
2019-03-31T07:18:39.159Z,9.40
2019-03-31T07:21:09.138Z,9.60
2019-03-31T07:23:39.131Z,9.60
2019-03-31T07:26:09.379Z,9.80
2019-03-31T07:28:39.441Z,9.80
2019-03-31T07:31:09.437Z,10.00
2019-03-31T07:33:39.457Z,10.20
2019-03-31T07:36:09.463Z,10.30
2019-03-31T07:38:39.838Z,10.40
2019-03-31T07:41:13.001Z,10.40
2019-03-31T07:43:41.843Z,10.60
2019-03-31T07:46:12.076Z,10.70
2019-03-31T07:48:42.438Z,10.80
2019-03-31T07:51:12.774Z,11.00
2019-03-31T07:53:42.896Z,11.20
2019-03-31T07:56:15.946Z,11.30
2019-03-31T07:58:44.795Z,11.40
2019-03-31T08:01:14.690Z,11.50
2019-03-31T08:03:44.694Z,11.60
2019-03-31T08:06:15.037Z,11.70
2019-03-31T08:08:45.281Z,11.90
2019-03-31T08:11:17.096Z,12.00
2019-03-31T08:13:47.325Z,12.20
2019-03-31T08:16:17.287Z,12.40
2019-03-31T08:18:47.291Z,12.50
2019-03-31T08:21:17.271Z,12.70
2019-03-31T08:23:47.245Z,12.80
2019-03-31T08:26:17.258Z,13.00
2019-03-31T08:28:47.222Z,13.00
2019-03-31T08:31:17.217Z,13.00
2019-03-31T08:33:47.454Z,13.10
2019-03-31T08:36:17.463Z,13.10
2019-03-31T08:38:47.439Z,13.30
2019-03-31T08:41:17.473Z,13.50
2019-03-31T08:43:47.468Z,13.80
2019-03-31T08:46:17.781Z,14.00
2019-03-31T08:48:47.790Z,14.00
2019-03-31T08:51:17.751Z,14.20
2019-03-31T08:53:47.730Z,14.30
2019-03-31T08:56:18.082Z,14.50
2019-03-31T08:58:48.067Z,14.70
2019-03-31T09:01:18.351Z,14.80
2019-03-31T09:03:48.384Z,14.80
2019-03-31T09:06:18.333Z,14.80
2019-03-31T09:08:48.311Z,15.00
2019-03-31T09:11:18.282Z,15.20
2019-03-31T09:13:48.255Z,15.40
2019-03-31T09:16:18.513Z,15.40
2019-03-31T09:18:48.499Z,15.30
2019-03-31T09:21:18.475Z,15.50
2019-03-31T09:23:48.465Z,15.60
2019-03-31T09:26:18.500Z,15.70
2019-03-31T09:28:48.464Z,15.80
2019-03-31T09:31:18.481Z,15.80
2019-03-31T09:33:48.443Z,15.90
2019-03-31T09:36:18.443Z,16.10
2019-03-31T09:38:48.691Z,16.10
2019-03-31T09:41:18.701Z,16.10
2019-03-31T09:43:48.669Z,16.30
2019-03-31T09:46:18.689Z,16.40
2019-03-31T09:48:48.647Z,16.40
2019-03-31T09:51:19.032Z,16.50
2019-03-31T09:53:49.027Z,16.40
2019-03-31T09:56:18.991Z,16.40
2019-03-31T09:58:49.003Z,16.50
2019-03-31T10:01:19.015Z,16.40
2019-03-31T10:03:49.038Z,16.40
2019-03-31T10:06:29.562Z,16.50
2019-03-31T10:08:50.916Z,16.70
2019-03-31T10:11:21.590Z,16.80
2019-03-31T10:13:51.587Z,17.10
2019-03-31T10:16:21.583Z,17.10
2019-03-31T10:18:51.683Z,17.30
2019-03-31T10:21:25.026Z,17.20
2019-03-31T10:23:55.849Z,17.20
2019-03-31T10:26:31.779Z,17.20
2019-03-31T10:28:58.619Z,17.20
2019-03-31T10:31:30.686Z,17.30
2019-03-31T10:34:00.674Z,17.50
2019-03-31T10:36:43.493Z,17.80
2019-03-31T10:39:02.663Z,17.90
2019-03-31T10:41:33.448Z,17.80
2019-03-31T10:44:03.838Z,18.00
2019-03-31T10:46:35.149Z,18.00
2019-03-31T10:49:05.511Z,18.10
2019-03-31T10:51:36.649Z,18.20
2019-03-31T10:54:07.205Z,18.20
2019-03-31T10:56:37.236Z,18.10
2019-03-31T10:59:07.334Z,18.00
2019-03-31T11:01:37.405Z,18.20
2019-03-31T11:04:07.360Z,18.30
2019-03-31T11:06:37.840Z,18.40
2019-03-31T11:09:08.694Z,18.50
2019-03-31T11:11:38.745Z,18.60
2019-03-31T11:14:08.899Z,18.50
2019-03-31T11:16:38.902Z,18.80
2019-03-31T11:19:09.039Z,19.00
2019-03-31T11:21:56.568Z,19.10
2019-03-31T11:24:26.579Z,19.00
2019-03-31T11:26:56.545Z,19.10
2019-03-31T11:29:26.736Z,19.00
2019-03-31T11:31:57.635Z,19.00
2019-03-31T11:34:28.187Z,18.90
2019-03-31T11:37:12.529Z,18.90
2019-03-31T11:39:30.856Z,19.00
2019-03-31T11:42:01.612Z,19.10
2019-03-31T11:44:31.909Z,19.00
2019-03-31T11:47:01.925Z,19.20
2019-03-31T11:49:38.676Z,19.30
2019-03-31T11:52:08.831Z,19.40
2019-03-31T11:54:39.495Z,19.30
2019-03-31T11:57:09.685Z,19.40
2019-03-31T11:59:39.911Z,19.30
2019-03-31T12:02:10.279Z,19.60
2019-03-31T12:04:40.287Z,19.20
2019-03-31T12:07:10.259Z,19.30
2019-03-31T12:09:40.536Z,19.50
2019-03-31T12:12:10.635Z,19.70
2019-03-31T12:14:41.415Z,19.70
2019-03-31T12:17:11.382Z,19.80
2019-03-31T12:19:41.386Z,19.40
2019-03-31T12:22:11.338Z,19.90
2019-03-31T12:24:41.343Z,20.20
2019-03-31T12:27:11.330Z,20.40
2019-03-31T12:29:41.334Z,20.80
2019-03-31T12:32:11.294Z,20.90
2019-03-31T12:34:41.564Z,20.60
2019-03-31T12:37:11.563Z,20.40
2019-03-31T12:39:41.865Z,20.20
2019-03-31T12:42:11.854Z,20.00
2019-03-31T12:44:42.307Z,19.80
2019-03-31T12:47:12.578Z,19.60
2019-03-31T12:49:42.628Z,19.40
2019-03-31T12:52:12.619Z,19.50
2019-03-31T12:54:42.950Z,19.30
2019-03-31T12:57:13.082Z,19.60
2019-03-31T12:59:43.106Z,19.60
2019-03-31T13:02:13.073Z,19.50
2019-03-31T13:04:43.073Z,19.80
2019-03-31T13:07:14.889Z,19.90
2019-03-31T13:09:44.972Z,20.00
2019-03-31T13:12:15.276Z,19.90
2019-03-31T13:14:45.235Z,19.80
2019-03-31T13:17:15.236Z,19.60
2019-03-31T13:19:45.216Z,19.80
2019-03-31T13:22:15.222Z,20.10
2019-03-31T13:24:45.190Z,20.10
2019-03-31T13:27:15.187Z,19.80
2019-03-31T13:29:45.159Z,19.90
2019-03-31T13:32:15.172Z,19.90
2019-03-31T13:34:45.281Z,19.80
2019-03-31T13:37:15.672Z,20.00
2019-03-31T13:39:45.669Z,19.90
2019-03-31T13:42:15.682Z,19.90
2019-03-31T13:44:45.922Z,19.70
2019-03-31T13:47:16.198Z,19.80
2019-03-31T13:49:46.171Z,19.90
2019-03-31T13:52:16.165Z,20.10
2019-03-31T13:54:46.538Z,19.70
2019-03-31T13:57:16.944Z,19.40
2019-03-31T13:59:47.221Z,19.30
2019-03-31T14:02:17.230Z,19.00
2019-03-31T14:04:51.898Z,18.90
2019-03-31T14:07:19.631Z,19.00
2019-03-31T14:09:49.615Z,19.10
2019-03-31T14:12:19.635Z,19.30
2019-03-31T14:14:49.595Z,19.50
2019-03-31T14:17:19.585Z,19.50
2019-03-31T14:19:49.559Z,19.60
2019-03-31T14:22:19.557Z,19.60
2019-03-31T14:24:49.562Z,19.60
2019-03-31T14:27:19.683Z,19.90
2019-03-31T14:29:50.047Z,19.90
2019-03-31T14:32:19.998Z,19.90
2019-03-31T14:34:50.050Z,19.80
2019-03-31T14:37:20.047Z,19.50
2019-03-31T14:39:50.046Z,19.50
2019-03-31T14:42:20.013Z,19.50
2019-03-31T14:44:50.016Z,19.50
2019-03-31T14:47:20.243Z,19.70
2019-03-31T14:49:50.228Z,19.50
2019-03-31T14:52:27.231Z,19.70
2019-03-31T14:54:51.839Z,19.60
2019-03-31T14:57:21.823Z,19.70
2019-03-31T14:59:51.804Z,19.60
2019-03-31T15:02:22.082Z,19.60
2019-03-31T15:04:52.068Z,19.70
2019-03-31T15:07:22.151Z,19.70
2019-03-31T15:09:52.137Z,19.70
2019-03-31T15:12:22.112Z,19.60
2019-03-31T15:14:52.384Z,19.60
2019-03-31T15:17:22.363Z,19.60
2019-03-31T15:19:52.403Z,19.60
2019-03-31T15:22:22.500Z,19.50
2019-03-31T15:24:52.523Z,19.40
2019-03-31T15:27:23.269Z,19.20
2019-03-31T15:29:53.274Z,19.00
2019-03-31T15:32:23.225Z,18.90
2019-03-31T15:34:53.238Z,18.80
2019-03-31T15:37:23.357Z,18.70
2019-03-31T15:39:53.967Z,18.70
2019-03-31T15:42:23.931Z,18.70
2019-03-31T15:44:53.914Z,18.80
2019-03-31T15:47:23.906Z,18.80
2019-03-31T15:49:53.923Z,18.90
2019-03-31T15:52:23.883Z,18.90
2019-03-31T15:54:53.888Z,18.90
2019-03-31T15:57:23.853Z,18.90
2019-03-31T15:59:53.896Z,19.00
2019-03-31T16:02:24.933Z,19.10
2019-03-31T16:04:54.938Z,19.20
2019-03-31T16:07:24.959Z,19.10
2019-03-31T16:09:54.419Z,19.10
2019-03-31T16:12:23.947Z,19.20
2019-03-31T16:14:53.400Z,19.10
2019-03-31T16:17:22.849Z,19.10
2019-03-31T16:19:53.386Z,19.00
2019-03-31T16:22:23.185Z,18.90
2019-03-31T16:24:54.980Z,18.80
2019-03-31T16:27:24.658Z,18.70
2019-03-31T16:29:54.148Z,18.80
2019-03-31T16:32:23.566Z,18.70
2019-03-31T16:34:53.051Z,18.60
2019-03-31T16:37:22.504Z,18.60
2019-03-31T16:39:51.967Z,18.50
2019-03-31T16:42:21.747Z,18.50
2019-03-31T16:44:57.996Z,18.40
2019-03-31T16:47:22.854Z,18.30
2019-03-31T16:49:52.647Z,18.30
2019-03-31T16:52:22.087Z,18.20
2019-03-31T16:54:51.530Z,18.10
2019-03-31T16:57:20.981Z,18.00
2019-03-31T16:59:50.402Z,18.00
2019-03-31T17:02:19.871Z,17.90
2019-03-31T17:04:49.451Z,17.90
2019-03-31T17:07:19.201Z,17.80
2019-03-31T17:09:51.785Z,17.80
2019-03-31T17:12:19.999Z,17.70
2019-03-31T17:14:49.430Z,17.60
2019-03-31T17:17:19.004Z,17.50
2019-03-31T17:19:48.417Z,17.50
2019-03-31T17:22:17.868Z,17.40
2019-03-31T17:24:47.287Z,17.30
2019-03-31T17:27:16.928Z,17.20
2019-03-31T17:29:46.350Z,17.20
2019-03-31T17:32:16.163Z,17.00
2019-03-31T17:34:46.220Z,16.90
2019-03-31T17:37:15.680Z,16.80
2019-03-31T17:39:45.084Z,16.70
2019-03-31T17:42:14.535Z,16.60
2019-03-31T17:44:43.967Z,16.50
2019-03-31T17:47:13.385Z,16.40
2019-03-31T17:49:42.861Z,16.30
2019-03-31T17:52:12.317Z,16.20
2019-03-31T17:54:41.774Z,16.10
2019-03-31T17:57:12.108Z,16.00
2019-03-31T17:59:41.637Z,16.00
2019-03-31T18:02:11.452Z,16.00
2019-03-31T18:04:41.063Z,15.90
2019-03-31T18:07:10.493Z,15.70
2019-03-31T18:09:40.225Z,15.70
2019-03-31T18:12:10.054Z,15.60
2019-03-31T18:14:39.504Z,15.50
2019-03-31T18:17:08.999Z,15.40
2019-03-31T18:19:38.510Z,15.40
2019-03-31T18:22:16.223Z,15.40
2019-03-31T18:24:39.464Z,15.50
2019-03-31T18:27:08.899Z,15.30
2019-03-31T18:29:38.930Z,15.20
2019-03-31T18:32:08.366Z,15.10
2019-03-31T18:34:37.785Z,15.10
2019-03-31T18:37:07.314Z,15.00
2019-03-31T18:39:37.209Z,15.00
2019-03-31T18:42:07.062Z,15.00
2019-03-31T18:44:36.542Z,14.90
2019-03-31T18:47:06.099Z,14.80
2019-03-31T18:49:35.516Z,14.80
2019-03-31T18:52:04.987Z,14.70
2019-03-31T18:54:48.217Z,14.60
2019-03-31T18:57:36.615Z,14.60
2019-03-31T19:00:29.934Z,14.60
2019-03-31T19:03:24.432Z,14.50
2019-03-31T19:06:17.650Z,14.40
2019-03-31T19:09:04.935Z,14.30
2019-03-31T19:11:44.597Z,14.30
2019-03-31T19:14:32.996Z,14.30
2019-03-31T19:17:33.507Z,14.20
2019-03-31T19:20:27.777Z,14.10
2019-03-31T19:23:25.267Z,14.10
2019-03-31T19:26:13.657Z,14.00
2019-03-31T19:29:00.985Z,14.00
2019-03-31T19:31:47.142Z,13.90
2019-03-31T19:34:39.755Z,13.90
2019-03-31T19:37:22.735Z,13.90
2019-03-31T19:40:11.770Z,13.90
2019-03-31T19:43:02.943Z,13.80
2019-03-31T19:45:39.594Z,13.80
2019-03-31T19:48:14.799Z,13.80
2019-03-31T19:51:12.401Z,13.80
2019-03-31T19:54:01.115Z,13.70
2019-03-31T19:56:48.144Z,13.80
2019-03-31T19:59:35.275Z,13.70
2019-03-31T20:02:18.409Z,13.40
2019-03-31T20:05:09.222Z,13.40
2019-03-31T20:07:57.025Z,13.30
2019-03-31T20:10:45.452Z,13.20
2019-03-31T20:13:36.631Z,13.30
2019-03-31T20:16:23.439Z,13.10
2019-03-31T20:19:10.751Z,13.20
2019-03-31T20:21:45.943Z,13.20
2019-03-31T20:24:24.259Z,13.20
2019-03-31T20:27:13.005Z,13.10
2019-03-31T20:30:04.851Z,13.00
2019-03-31T20:32:52.180Z,12.90
2019-03-31T20:35:43.393Z,12.90
2019-03-31T20:38:22.289Z,12.90
2019-03-31T20:41:05.103Z,12.90
2019-03-31T20:43:52.025Z,12.90
2019-03-31T20:46:22.046Z,12.80
2019-03-31T20:48:51.800Z,12.80
2019-03-31T20:51:21.496Z,12.80
2019-03-31T20:53:51.292Z,12.70
2019-03-31T20:56:21.036Z,12.80
2019-03-31T20:58:50.772Z,12.70
2019-03-31T21:01:20.626Z,12.60
2019-03-31T21:03:50.922Z,12.60
2019-03-31T21:06:20.738Z,12.60
2019-03-31T21:08:50.206Z,12.70
2019-03-31T21:11:19.927Z,12.60
2019-03-31T21:13:49.742Z,12.50
2019-03-31T21:16:19.176Z,12.50
2019-03-31T21:18:48.674Z,12.50
2019-03-31T21:21:18.678Z,12.40
2019-03-31T21:23:48.178Z,12.30
2019-03-31T21:26:18.006Z,12.20
2019-03-31T21:28:47.481Z,12.10
2019-03-31T21:31:16.902Z,12.10
2019-03-31T21:33:46.391Z,12.00
2019-03-31T21:36:15.868Z,12.00
2019-03-31T21:38:45.394Z,11.90
2019-03-31T21:41:14.982Z,11.90
2019-03-31T21:43:44.418Z,11.90
2019-03-31T21:46:14.129Z,11.80
2019-03-31T21:48:43.615Z,11.70
2019-03-31T21:51:13.875Z,11.70
2019-03-31T21:53:43.356Z,11.60
2019-03-31T21:56:12.808Z,11.50
2019-03-31T21:58:42.273Z,11.40
2019-03-31T22:01:11.859Z,11.30
2019-03-31T22:03:41.313Z,11.20
2019-03-31T22:06:11.139Z,11.20
2019-03-31T22:08:40.645Z,11.20
2019-03-31T22:11:10.138Z,11.20
2019-03-31T22:13:40.618Z,11.10
2019-03-31T22:16:10.098Z,11.00
2019-03-31T22:18:39.526Z,11.00
2019-03-31T22:21:09.415Z,10.90
2019-03-31T22:23:38.909Z,11.00
2019-03-31T22:26:08.368Z,11.10
2019-03-31T22:28:38.006Z,11.10
2019-03-31T22:31:07.782Z,11.10
2019-03-31T22:33:37.769Z,11.10
2019-03-31T22:36:22.199Z,11.10
2019-03-31T22:38:52.735Z,11.20
2019-03-31T22:41:22.415Z,11.20
2019-03-31T22:43:51.999Z,11.10
2019-03-31T22:46:22.541Z,11.10
2019-03-31T22:48:51.999Z,11.10
2019-03-31T22:51:21.419Z,11.00
2019-03-31T22:53:50.960Z,11.00
2019-03-31T22:56:20.383Z,10.90
2019-03-31T22:58:49.878Z,10.80
2019-03-31T23:01:19.310Z,10.80
2019-03-31T23:03:48.897Z,10.80
2019-03-31T23:06:18.524Z,10.80
2019-03-31T23:08:47.994Z,10.80
2019-03-31T23:11:17.470Z,10.70
2019-03-31T23:13:47.192Z,10.70
2019-03-31T23:16:16.650Z,10.70
2019-03-31T23:18:46.666Z,10.70
2019-03-31T23:21:16.422Z,10.60
2019-03-31T23:23:46.040Z,10.60
2019-03-31T23:26:15.745Z,10.50
2019-03-31T23:28:48.030Z,10.50
2019-03-31T23:31:18.237Z,10.40
2019-03-31T23:33:47.675Z,10.40
2019-03-31T23:36:17.157Z,10.30
2019-03-31T23:38:46.707Z,10.10
2019-03-31T23:41:16.485Z,10.10
2019-03-31T23:43:45.945Z,10.10
2019-03-31T23:46:15.707Z,10.20
2019-03-31T23:48:45.367Z,10.20
2019-03-31T23:51:14.845Z,10.20
2019-03-31T23:53:44.668Z,10.10
2019-03-31T23:56:14.091Z,10.10
2019-03-31T23:58:43.522Z,10.00
